Time;durP1;ratioP1;P1;durP2;ratioP2;P2;SDS_P1;SDS_P2;PMS_P1;PMS_P2;Temp;Humidity;BMP_temperature;BMP_pressure;BME280_temperature;BME280_humidity;BME280_pressure;Samples;Min_cycle;Max_cycle;Signal;HPM_P1;HPM_P2
2022/09/23 00:00:10;;;;;;;3.38;2.60;;;;;;;21.64;52.31;100718.09;20533057;28;20048;-74
2022/09/23 00:10:11;;;;;;;3.75;2.65;;;;;;;21.65;52.28;100726.84;20555666;28;20502;-73
2022/09/23 00:20:12;;;;;;;3.72;2.95;;;;;;;21.63;52.08;100724.31;20551399;28;20050;-73
2022/09/23 00:30:13;;;;;;;2.95;2.47;;;;;;;21.60;51.92;100716.63;20563170;28;20053;-74
2022/09/23 00:40:14;;;;;;;3.20;2.50;;;;;;;21.58;52.11;100708.00;20608352;28;20420;-74
2022/09/23 00:50:29;;;;;;;3.05;2.60;;;;;;;21.58;52.02;100697.44;20621801;28;20046;-74
2022/09/23 01:00:30;;;;;;;3.08;2.55;;;;;;;21.56;51.80;100697.56;20615995;28;20409;-72
2022/09/23 01:11:08;;;;;;;3.58;2.42;;;;;;;21.55;51.95;100702.94;20558052;28;20161;-73
2022/09/23 01:21:39;;;;;;;2.90;2.60;;;;;;;21.55;51.85;100708.19;20622903;28;20077;-74
2022/09/23 01:31:50;;;;;;;2.77;2.33;;;;;;;21.52;51.85;100696.09;20596884;28;20042;-74
2022/09/23 01:42:05;;;;;;;3.03;2.40;;;;;;;21.50;51.88;100703.25;20535197;28;20053;-74
2022/09/23 01:52:14;;;;;;;2.67;2.33;;;;;;;21.49;51.87;100700.75;20534703;28;20058;-74
2022/09/23 02:02:30;;;;;;;2.35;2.05;;;;;;;21.48;51.76;100691.16;20573530;28;20576;-75
2022/09/23 02:12:34;;;;;;;3.00;2.60;;;;;;;21.46;51.74;100690.44;20611214;28;20125;-74
2022/09/23 02:22:51;;;;;;;2.90;2.50;;;;;;;21.44;51.76;100688.75;20570631;28;20860;-74
2022/09/23 02:33:07;;;;;;;2.97;2.30;;;;;;;21.43;51.67;100689.72;20561448;28;20092;-76
2022/09/23 02:43:21;;;;;;;2.85;2.50;;;;;;;21.42;51.59;100679.28;20530963;28;20046;-73
2022/09/23 02:53:22;;;;;;;2.97;2.25;;;;;;;21.41;51.75;100696.88;20530403;28;20046;-74
2022/09/23 03:03:45;;;;;;;2.28;2.08;;;;;;;21.38;51.59;100689.19;20568112;28;20062;-74
2022/09/23 03:14:07;;;;;;;2.90;2.30;;;;;;;21.37;51.52;100684.91;20537169;28;20069;-74
2022/09/23 03:24:13;;;;;;;2.90;2.20;;;;;;;21.34;51.54;100687.75;20542369;28;20161;-73
2022/09/23 03:34:21;;;;;;;2.28;1.88;;;;;;;21.35;51.47;100689.44;20559356;28;20131;-73
2022/09/23 03:44:22;;;;;;;5.15;2.10;;;;;;;21.33;51.62;100695.78;20595083;28;20073;-73
2022/09/23 03:54:22;;;;;;;2.58;1.90;;;;;;;21.34;51.52;100690.38;20557868;28;20061;-73
2022/09/23 04:04:23;;;;;;;2.30;2.10;;;;;;;21.31;51.78;100687.13;20553766;28;20038;-74
2022/09/23 04:14:24;;;;;;;2.92;2.08;;;;;;;21.30;51.46;100691.56;20573496;28;20140;-75
2022/09/23 04:24:24;;;;;;;2.45;2.00;;;;;;;21.34;51.00;100698.28;20616252;28;20113;-73
2022/09/23 04:34:25;;;;;;;6.57;2.17;;;;;;;21.47;52.40;100700.00;20519877;28;20050;-74
2022/09/23 04:44:27;;;;;;;5.20;2.08;;;;;;;21.52;53.62;100711.91;20580179;28;20052;-74
2022/09/23 04:54:28;;;;;;;18.83;4.60;;;;;;;21.56;53.91;100707.25;20600086;28;20047;-73
2022/09/23 05:04:30;;;;;;;27.52;4.97;;;;;;;21.52;51.64;100711.91;20618874;28;20165;-81
2022/09/23 05:14:30;;;;;;;16.53;4.47;;;;;;;21.48;50.92;100717.50;20651993;28;20077;-78
2022/09/23 05:24:31;;;;;;;23.23;4.97;;;;;;;21.45;51.52;100723.84;20566319;28;20753;-81
2022/09/23 05:34:31;;;;;;;30.13;5.45;;;;;;;21.50;52.30;100734.88;20570186;28;20046;-83
2022/09/23 05:44:31;;;;;;;35.40;4.57;;;;;;;21.38;51.01;100741.06;20546246;28;20046;-79
2022/09/23 05:54:33;;;;;;;23.38;5.60;;;;;;;21.44;52.11;100741.44;20551152;28;20054;-77
2022/09/23 06:04:33;;;;;;;24.42;6.00;;;;;;;21.33;51.64;100751.91;20588578;28;20498;-77
2022/09/23 06:14:34;;;;;;;20.90;4.85;;;;;;;21.46;52.47;100741.34;20623987;28;20042;-78
2022/09/23 06:24:35;;;;;;;20.60;5.05;;;;;;;21.49;51.93;100751.63;20656827;28;20613;-78
2022/09/23 06:34:36;;;;;;;13.68;4.20;;;;;;;21.51;52.94;100756.81;20633719;28;20096;-77
2022/09/23 06:44:36;;;;;;;12.77;3.67;;;;;;;21.53;52.39;100752.25;20636091;28;20046;-78
2022/09/23 06:54:36;;;;;;;13.35;3.65;;;;;;;21.53;52.67;100770.69;20591270;28;20104;-75
2022/09/23 07:04:37;;;;;;;11.48;3.85;;;;;;;21.54;52.74;100759.22;20548889;28;20046;-78
2022/09/23 07:14:37;;;;;;;9.60;4.00;;;;;;;21.56;52.92;100774.00;20630437;28;20034;-78
2022/09/23 07:24:38;;;;;;;10.52;3.75;;;;;;;21.62;52.14;100772.72;20587211;28;20085;-78
2022/09/23 07:34:38;;;;;;;10.95;4.03;;;;;;;21.36;47.84;100772.78;20598452;28;20046;-78
2022/09/23 07:44:42;;;;;;;8.00;3.28;;;;;;;21.41;49.48;100770.66;20611701;28;20045;-77
2022/09/23 07:54:45;;;;;;;7.47;3.13;;;;;;;21.49;50.45;100769.25;20588391;28;20085;-80
2022/09/23 08:04:49;;;;;;;19.88;3.70;;;;;;;21.47;50.97;100766.75;20576830;28;20042;-77
2022/09/23 08:14:49;;;;;;;15.05;2.95;;;;;;;21.27;47.67;100774.25;20566084;28;20108;-77
2022/09/23 08:24:50;;;;;;;7.82;2.83;;;;;;;21.44;49.49;100764.31;20568827;28;20110;-78
2022/09/23 08:34:51;;;;;;;11.13;3.30;;;;;;;21.64;51.08;100759.41;20627069;28;20038;-77
2022/09/23 08:44:56;;;;;;;13.40;3.83;;;;;;;21.63;50.91;100748.03;20627209;28;20501;-78
2022/09/23 08:54:57;;;;;;;12.93;3.00;;;;;;;21.63;51.01;100753.31;20553595;28;20057;-76
2022/09/23 09:05:04;;;;;;;30.70;5.50;;;;;;;21.61;50.30;100742.03;20560023;28;20062;-79
2022/09/23 09:15:12;;;;;;;18.58;7.68;;;;;;;21.66;50.77;100742.53;20616758;28;20053;-81
2022/09/23 09:25:37;;;;;;;10.55;4.60;;;;;;;21.70;51.13;100743.13;20570640;28;20046;-75
2022/09/23 09:36:15;;;;;;;15.70;10.05;;;;;;;21.77;50.66;100739.09;20541618;28;20414;-79
2022/09/23 09:46:24;;;;;;;19.33;10.93;;;;;;;21.82;51.04;100722.94;20580037;28;20047;-79
2022/09/23 09:56:35;;;;;;;16.08;9.23;;;;;;;21.91;52.35;100711.72;20635332;28;20520;-78
2022/09/23 10:06:35;;;;;;;15.95;9.02;;;;;;;21.97;52.15;100708.63;20635238;28;20073;-78
2022/09/23 10:16:36;;;;;;;14.40;8.13;;;;;;;22.07;52.43;100701.69;20579152;28;20050;-78
2022/09/23 10:26:53;;;;;;;20.58;8.70;;;;;;;22.17;51.45;100703.63;20605358;28;20038;-79
2022/09/23 10:37:12;;;;;;;145.02;92.25;;;;;;;22.25;51.29;100700.38;20597581;28;20043;-79
2022/09/23 10:47:37;;;;;;;130.68;87.45;;;;;;;22.30;50.23;100685.03;20559265;28;20066;-75
2022/09/23 10:57:44;;;;;;;97.97;65.80;;;;;;;22.39;52.23;100679.09;20567524;28;20038;-75
2022/09/23 11:08:23;;;;;;;80.90;55.70;;;;;;;22.42;52.12;100678.00;20630887;28;20042;-75
2022/09/23 11:18:44;;;;;;;70.63;47.38;;;;;;;22.43;50.98;100669.97;20635077;28;20172;-76
2022/09/23 11:28:57;;;;;;;62.07;40.90;;;;;;;22.34;49.79;100655.66;20548891;28;20042;-78
2022/09/23 11:39:01;;;;;;;47.70;34.40;;;;;;;22.51;49.79;100641.19;20556193;28;20051;-75
2022/09/23 11:49:18;;;;;;;45.53;31.63;;;;;;;22.64;49.35;100629.63;20577447;28;20125;-78
2022/09/23 11:59:36;;;;;;;44.08;30.13;;;;;;;22.77;49.63;100617.13;20578112;28;20077;-78
2022/09/23 12:09:43;;;;;;;41.33;29.33;;;;;;;22.82;49.74;100619.41;20654537;28;20041;-76
2022/09/23 12:20:19;;;;;;;43.60;28.67;;;;;;;22.78;49.91;100612.72;20622966;28;20050;-77
2022/09/23 12:30:31;;;;;;;41.20;27.27;;;;;;;22.77;50.07;100601.28;20591816;28;20142;-76
2022/09/23 12:40:34;;;;;;;36.90;24.20;;;;;;;22.73;50.03;100591.09;20561310;28;20050;-76
2022/09/23 12:50:57;;;;;;;39.00;24.15;;;;;;;22.74;50.66;100585.72;20580132;28;21722;-78
2022/09/23 13:01:17;;;;;;;34.97;21.70;;;;;;;22.79;50.76;100565.06;20563173;28;20120;-76
2022/09/23 13:11:32;;;;;;;33.70;21.77;;;;;;;22.90;50.96;100558.03;20581202;28;20055;-77
2022/09/23 13:21:41;;;;;;;31.33;20.10;;;;;;;23.02;51.27;100546.47;20588495;28;20125;-75
2022/09/23 13:31:42;;;;;;;31.17;19.60;;;;;;;23.10;50.73;100545.84;20562854;28;20034;-76
2022/09/23 13:41:44;;;;;;;26.83;18.25;;;;;;;23.08;51.04;100545.13;20607813;28;20081;-77
2022/09/23 13:51:45;;;;;;;29.13;18.58;;;;;;;23.01;50.94;100543.00;20556932;28;20140;-76
2022/09/23 14:01:45;;;;;;;27.17;17.88;;;;;;;22.95;50.80;100540.00;20538030;28;21417;-77
2022/09/23 14:11:49;;;;;;;27.95;17.70;;;;;;;22.97;50.85;100531.03;20554849;28;20590;-77
2022/09/23 14:21:54;;;;;;;25.23;17.55;;;;;;;23.05;51.83;100511.91;20538554;28;21550;-78
2022/09/23 14:32:00;;;;;;;24.17;15.68;;;;;;;23.08;51.39;100516.91;20560810;28;20073;-76
2022/09/23 14:42:01;;;;;;;22.70;15.15;;;;;;;23.07;51.52;100512.63;20555873;28;20054;-77
2022/09/23 14:52:05;;;;;;;26.63;15.20;;;;;;;23.05;51.67;100508.44;20575582;28;20505;-77
2022/09/23 15:02:27;;;;;;;18.90;14.10;;;;;;;23.02;51.52;100499.78;20553903;28;22480;-76
2022/09/23 15:12:29;;;;;;;17.63;12.00;;;;;;;22.99;50.14;100505.31;20565022;28;20050;-78
2022/09/23 15:22:30;;;;;;;11.60;8.18;;;;;;;22.83;46.04;100497.00;20579013;28;20420;-76
2022/09/23 15:32:30;;;;;;;12.98;7.95;;;;;;;22.90;48.01;100490.25;20551019;28;20042;-75
2022/09/23 15:42:30;;;;;;;13.20;8.27;;;;;;;22.97;48.45;100487.91;20564724;28;20050;-77
2022/09/23 15:52:31;;;;;;;8.95;7.20;;;;;;;23.13;48.84;100480.41;20557580;28;20043;-76
2022/09/23 16:02:32;;;;;;;17.55;7.95;;;;;;;23.13;49.03;100479.53;20618785;28;20081;-78
2022/09/23 16:12:33;;;;;;;12.82;7.32;;;;;;;23.05;49.74;100485.47;20576687;28;20043;-74
2022/09/23 16:22:33;;;;;;;11.57;7.30;;;;;;;22.99;49.72;100492.09;20570024;28;20502;-72
2022/09/23 16:32:33;;;;;;;9.23;6.70;;;;;;;22.94;49.96;100480.28;20590375;28;20046;-74
2022/09/23 16:42:34;;;;;;;11.57;6.43;;;;;;;22.87;50.00;100485.22;20571689;28;20169;-75
2022/09/23 16:52:34;;;;;;;15.85;8.18;;;;;;;22.91;50.89;100491.94;20545819;28;20044;-76
2022/09/23 17:12:55;;;;;;;13.35;8.68;;;;;;;22.93;51.55;100487.34;20529818;28;20054;-79
2022/09/23 17:22:55;;;;;;;47.50;33.40;;;;;;;23.00;52.39;100482.41;20509889;28;21666;-78
2022/09/23 17:32:56;;;;;;;58.10;45.20;;;;;;;23.04;53.53;100494.38;20550841;28;20042;-78
2022/09/23 17:42:56;;;;;;;72.85;57.72;;;;;;;23.08;53.91;100494.94;20525828;28;20166;-80
2022/09/23 17:52:59;;;;;;;84.72;64.00;;;;;;;23.10;54.50;100500.94;20540119;28;20081;-80
2022/09/23 18:03:00;;;;;;;83.80;65.03;;;;;;;23.13;54.74;100504.16;20554014;28;20046;-86
2022/09/23 18:13:00;;;;;;;70.00;55.95;;;;;;;23.16;54.12;100508.34;20514891;28;20494;-77
2022/09/23 18:23:01;;;;;;;62.72;48.67;;;;;;;23.16;53.90;100517.13;20540706;28;20087;-82
2022/09/23 18:33:02;;;;;;;58.40;44.80;;;;;;;23.14;52.58;100511.13;20567932;28;20042;-83
2022/09/23 18:43:03;;;;;;;62.50;34.50;;;;;;;23.16;51.68;100519.78;20567100;28;21094;-79
2022/09/23 18:53:04;;;;;;;37.50;26.35;;;;;;;23.02;49.76;100523.56;20565707;28;20073;-79
2022/09/23 19:03:05;;;;;;;38.75;28.95;;;;;;;23.03;51.44;100517.31;20567769;28;20522;-81
2022/09/23 19:13:05;;;;;;;32.90;26.25;;;;;;;22.99;51.69;100522.97;20543147;28;20130;-80
2022/09/23 19:23:05;;;;;;;31.73;25.98;;;;;;;22.97;52.32;100520.47;20562583;28;20065;-80
2022/09/23 19:33:07;;;;;;;33.45;25.00;;;;;;;22.94;52.49;100530.44;20557563;28;20077;-80
2022/09/23 19:43:08;;;;;;;34.40;24.00;;;;;;;22.88;52.59;100521.22;20618602;28;20123;-82
2022/09/23 19:53:08;;;;;;;25.88;21.83;;;;;;;22.81;52.28;100523.53;20563912;28;20042;-84
2022/09/23 20:03:09;;;;;;;27.52;21.40;;;;;;;22.76;52.34;100527.50;20588655;28;20056;-78
2022/09/23 20:13:09;;;;;;;24.33;20.15;;;;;;;22.66;52.71;100524.78;20644339;28;20054;-81
2022/09/23 20:23:09;;;;;;;31.98;18.05;;;;;;;22.60;52.10;100528.75;20638102;28;20057;-77
2022/09/23 20:33:13;;;;;;;24.80;18.20;;;;;;;22.51;52.72;100524.25;20601410;28;20505;-76
2022/09/23 20:43:14;;;;;;;25.00;17.02;;;;;;;22.46;52.76;100521.13;20640430;28;20055;-76
2022/09/23 20:53:16;;;;;;;24.65;16.23;;;;;;;22.44;52.99;100530.97;20615912;28;21791;-77
2022/09/23 21:03:17;;;;;;;21.30;16.10;;;;;;;22.38;53.10;100521.75;20666826;28;20092;-77
2022/09/23 21:13:20;;;;;;;21.30;14.73;;;;;;;22.34;53.06;100521.13;20659811;28;20057;-77
2022/09/23 21:23:28;;;;;;;;;;;;;;;22.31;53.07;100523.16;20598887;28;20045;-77
2022/09/23 21:33:31;;;;;;;17.98;14.32;;;;;;;22.25;53.32;100521.00;20614245;28;19921;-77
2022/09/23 21:43:34;;;;;;;16.70;13.35;;;;;;;22.25;53.26;100542.13;20613562;28;20070;-77
2022/09/23 21:53:35;;;;;;;16.52;12.75;;;;;;;22.18;53.33;100526.78;20663983;28;20041;-77
2022/09/23 22:03:38;;;;;;;15.65;12.98;;;;;;;22.17;53.03;100530.38;20657689;28;20084;-76
2022/09/23 22:13:38;;;;;;;15.60;12.32;;;;;;;22.15;52.92;100536.72;20660981;28;20042;-75
2022/09/23 22:23:39;;;;;;;14.35;12.23;;;;;;;22.09;53.31;100527.50;20647551;28;20777;-76
2022/09/23 22:33:39;;;;;;;13.73;11.82;;;;;;;22.09;52.80;100542.50;20661818;28;20042;-76
2022/09/23 22:43:40;;;;;;;14.10;11.38;;;;;;;22.06;53.09;100535.66;20633887;28;20121;-76
2022/09/23 22:53:41;;;;;;;14.80;11.10;;;;;;;22.03;52.74;100541.16;20563825;28;20409;-75
2022/09/23 23:03:41;;;;;;;12.75;10.30;;;;;;;22.02;53.19;100531.56;20538024;28;20047;-76
2022/09/23 23:13:42;;;;;;;11.95;9.75;;;;;;;21.99;53.04;100527.38;20579714;28;20930;-76
2022/09/23 23:23:45;;;;;;;12.93;10.00;;;;;;;21.98;52.72;100532.78;20619707;28;20092;-76
2022/09/23 23:33:45;;;;;;;;;;;;;;;21.97;52.46;100526.69;20571851;28;20045;-75
2022/09/23 23:43:46;;;;;;;18.88;10.00;;;;;;;21.94;52.85;100528.72;20603820;28;19936;-74
2022/09/23 23:53:47;;;;;;;11.63;9.55;;;;;;;21.91;53.13;100529.81;20610593;28;20103;-75
